createdAt,value
2018-03-14T00:01:02.051Z,10.60
2018-03-14T00:03:29.681Z,9.93
2018-03-14T00:05:57.424Z,9.20
2018-03-14T00:08:25.085Z,8.30
2018-03-14T00:10:52.741Z,9.87
2018-03-14T00:13:20.360Z,10.07
2018-03-14T00:15:48.021Z,9.67
2018-03-14T00:18:15.644Z,9.97
2018-03-14T00:20:43.321Z,12.80
2018-03-14T00:23:10.971Z,12.00
2018-03-14T00:25:38.601Z,9.37
2018-03-14T00:28:06.257Z,12.30
2018-03-14T00:30:33.974Z,12.10
2018-03-14T00:33:01.721Z,10.70
2018-03-14T00:35:29.374Z,10.80
2018-03-14T00:37:57.033Z,11.50
2018-03-14T00:40:24.713Z,13.30
2018-03-14T00:42:52.477Z,10.90
2018-03-14T00:45:20.146Z,8.30
2018-03-14T00:47:47.777Z,11.80
2018-03-14T00:50:15.464Z,10.87
2018-03-14T00:52:43.121Z,10.97
2018-03-14T00:55:10.789Z,11.07
2018-03-14T00:57:38.548Z,11.90
2018-03-14T01:00:06.212Z,10.93
2018-03-14T01:02:33.880Z,8.27
2018-03-14T01:05:01.540Z,9.50
2018-03-14T01:07:29.200Z,9.70
2018-03-14T01:09:56.968Z,10.50
2018-03-14T01:12:24.595Z,10.70
2018-03-14T01:14:52.260Z,11.80
2018-03-14T01:17:19.896Z,11.77
2018-03-14T01:19:47.551Z,12.80
2018-03-14T01:22:15.279Z,12.60
2018-03-14T01:24:43.046Z,13.17
2018-03-14T01:27:10.680Z,12.53
2018-03-14T01:29:38.341Z,13.87
2018-03-14T01:32:06.033Z,15.03
2018-03-14T01:34:33.801Z,13.00
2018-03-14T01:37:01.464Z,13.83
2018-03-14T01:39:29.126Z,11.37
2018-03-14T01:41:56.760Z,13.77
2018-03-14T01:44:24.823Z,11.53
2018-03-14T01:46:52.477Z,11.87
2018-03-14T01:49:20.192Z,9.87
2018-03-14T01:51:47.855Z,12.70
2018-03-14T01:54:15.493Z,13.70
2018-03-14T01:56:43.175Z,10.03
2018-03-14T01:59:10.840Z,10.67
2018-03-14T02:01:38.504Z,11.60
2018-03-14T02:04:06.132Z,12.50
2018-03-14T02:06:33.796Z,10.87
2018-03-14T02:09:01.428Z,12.83
2018-03-14T02:11:29.104Z,11.90
2018-03-14T02:13:56.821Z,12.47
2018-03-14T02:16:24.448Z,10.77
2018-03-14T02:18:52.105Z,10.40
2018-03-14T02:21:19.749Z,10.23
2018-03-14T02:23:47.406Z,13.50
2018-03-14T02:26:15.128Z,11.23
2018-03-14T02:28:42.852Z,9.80
2018-03-14T02:31:10.476Z,12.97
2018-03-14T02:33:38.212Z,12.27
2018-03-14T02:36:05.843Z,12.63
2018-03-14T02:38:33.508Z,12.13
2018-03-14T02:41:01.152Z,11.43
2018-03-14T02:43:28.885Z,11.20
2018-03-14T02:45:56.476Z,12.23
2018-03-14T02:48:24.089Z,12.57
2018-03-14T02:50:51.751Z,12.47
2018-03-14T02:53:19.932Z,13.37
2018-03-14T02:55:47.564Z,13.40
2018-03-14T02:58:15.177Z,11.57
2018-03-14T03:00:42.817Z,12.00
2018-03-14T03:03:10.427Z,5.97
2018-03-14T03:05:38.061Z,9.50
2018-03-14T03:08:05.698Z,7.50
2018-03-14T03:10:33.335Z,7.00
2018-03-14T03:13:00.945Z,9.90
2018-03-14T03:15:28.579Z,9.50
2018-03-14T03:17:56.201Z,10.57
2018-03-14T03:20:23.858Z,11.13
2018-03-14T03:22:51.472Z,12.30
2018-03-14T03:25:19.140Z,9.20
2018-03-14T03:27:46.777Z,11.50
2018-03-14T03:30:14.455Z,10.57
2018-03-14T03:32:42.088Z,14.47
2018-03-14T03:35:09.788Z,10.90
2018-03-14T03:37:37.424Z,14.07
2018-03-14T03:40:05.116Z,13.07
2018-03-14T03:42:32.752Z,13.50
2018-03-14T03:45:00.364Z,13.57
2018-03-14T03:47:28.005Z,10.47
2018-03-14T03:49:55.656Z,9.90
2018-03-14T03:52:23.297Z,9.47
2018-03-14T03:54:50.984Z,11.67
2018-03-14T03:57:18.621Z,11.20
2018-03-14T03:59:46.273Z,11.20
2018-03-14T04:02:13.977Z,10.90
2018-03-14T04:04:41.592Z,11.33
2018-03-14T04:07:09.205Z,13.80
2018-03-14T04:09:36.847Z,12.50
2018-03-14T04:12:04.461Z,12.23
2018-03-14T04:14:32.101Z,10.87
2018-03-14T04:16:59.717Z,12.83
2018-03-14T04:19:27.411Z,12.90
2018-03-14T04:21:55.025Z,11.97
2018-03-14T04:24:22.740Z,11.90
2018-03-14T04:26:50.356Z,12.00
2018-03-14T04:29:18.064Z,11.97
2018-03-14T04:31:45.677Z,12.53
2018-03-14T04:34:13.290Z,9.10
2018-03-14T04:36:40.924Z,12.40
2018-03-14T04:39:08.532Z,12.20
2018-03-14T04:41:36.169Z,11.70
2018-03-14T04:44:03.785Z,12.47
2018-03-14T04:46:31.421Z,13.47
2018-03-14T04:48:59.028Z,13.90
2018-03-14T04:51:26.669Z,12.47
2018-03-14T04:53:54.384Z,13.10
2018-03-14T04:56:22.045Z,13.17
2018-03-14T04:58:49.699Z,12.53
2018-03-14T05:01:17.348Z,13.17
2018-03-14T05:03:45.032Z,10.00
2018-03-14T05:06:12.675Z,12.87
2018-03-14T05:08:40.292Z,13.47
2018-03-14T05:11:07.905Z,12.80
2018-03-14T05:13:35.545Z,12.63
2018-03-14T05:16:03.160Z,12.67
2018-03-14T05:18:30.800Z,14.40
2018-03-14T05:20:58.408Z,12.63
2018-03-14T05:23:26.040Z,13.87
2018-03-14T05:25:53.652Z,15.40
2018-03-14T05:28:21.352Z,16.33
2018-03-14T05:30:48.976Z,15.33
2018-03-14T05:33:16.677Z,15.27
2018-03-14T05:35:44.293Z,16.63
2018-03-14T05:38:11.929Z,14.50
2018-03-14T05:40:39.535Z,15.47
2018-03-14T05:43:07.169Z,15.03
2018-03-14T05:45:34.781Z,15.87
2018-03-14T05:48:02.432Z,15.67
2018-03-14T05:50:30.045Z,14.00
2018-03-14T05:52:57.677Z,15.80
2018-03-14T05:55:25.602Z,13.90
2018-03-14T05:57:53.212Z,13.83
2018-03-14T06:00:20.857Z,14.53
2018-03-14T06:02:48.469Z,14.10
2018-03-14T06:05:16.104Z,12.13
2018-03-14T06:07:43.712Z,14.63
2018-03-14T06:10:11.345Z,13.87
2018-03-14T06:12:38.963Z,15.00
2018-03-14T06:15:06.628Z,17.47
2018-03-14T06:17:34.292Z,13.10
2018-03-14T06:20:01.958Z,14.57
2018-03-14T06:22:29.572Z,14.57
2018-03-14T06:24:57.190Z,13.40
2018-03-14T06:27:24.835Z,12.20
2018-03-14T06:29:52.481Z,10.30
2018-03-14T06:32:20.177Z,12.30
2018-03-14T06:34:47.842Z,12.20
2018-03-14T06:37:15.482Z,12.40
2018-03-14T06:39:43.094Z,12.33
2018-03-14T06:42:10.732Z,13.57
2018-03-14T06:44:38.340Z,15.83
2018-03-14T06:47:05.972Z,12.97
2018-03-14T06:49:33.589Z,14.60
2018-03-14T06:52:01.221Z,12.67
2018-03-14T06:54:28.836Z,14.33
2018-03-14T06:56:56.486Z,11.70
2018-03-14T06:59:35.936Z,10.73
2018-03-14T07:02:15.461Z,9.30
2018-03-14T07:05:06.732Z,11.10
2018-03-14T07:07:34.368Z,9.37
2018-03-14T07:10:01.977Z,12.80
2018-03-14T07:12:29.612Z,9.50
2018-03-14T07:14:57.225Z,13.00
2018-03-14T07:17:24.922Z,12.13
2018-03-14T07:19:52.517Z,14.37
2018-03-14T07:22:20.228Z,10.90
2018-03-14T07:24:47.865Z,11.73
2018-03-14T07:27:15.553Z,13.47
2018-03-14T07:29:43.206Z,13.40
2018-03-14T07:32:10.822Z,13.00
2018-03-14T07:34:38.453Z,14.17
2018-03-14T07:37:06.101Z,14.67
2018-03-14T07:39:33.760Z,14.17
2018-03-14T07:42:01.431Z,14.20
2018-03-14T07:44:29.090Z,15.60
2018-03-14T07:46:56.754Z,14.00
2018-03-14T07:49:24.421Z,15.50
2018-03-14T07:51:52.032Z,16.70
2018-03-14T07:54:19.744Z,14.53
2018-03-14T07:56:47.360Z,16.07
2018-03-14T07:59:15.011Z,14.17
2018-03-14T08:01:42.625Z,14.50
2018-03-14T08:04:10.238Z,13.30
2018-03-14T08:06:37.877Z,13.90
2018-03-14T08:09:05.492Z,13.37
2018-03-14T08:11:33.180Z,12.83
2018-03-14T08:14:00.860Z,13.30
2018-03-14T08:16:28.501Z,8.70
2018-03-14T08:18:56.112Z,12.43
2018-03-14T08:21:23.756Z,13.07
2018-03-14T08:23:51.387Z,13.40
2018-03-14T08:26:19.029Z,11.60
2018-03-14T08:28:46.641Z,15.13
2018-03-14T08:31:14.278Z,14.43
2018-03-14T08:33:41.892Z,12.00
2018-03-14T08:36:09.508Z,14.30
2018-03-14T08:38:37.139Z,13.67
2018-03-14T08:41:04.755Z,14.53
2018-03-14T08:43:32.489Z,13.27
2018-03-14T08:46:00.144Z,12.17
2018-03-14T08:48:27.775Z,13.87
2018-03-14T08:50:55.384Z,12.73
2018-03-14T08:53:23.025Z,14.43
2018-03-14T08:55:50.689Z,13.87
2018-03-14T08:58:18.319Z,12.93
2018-03-14T09:00:46.018Z,14.17
2018-03-14T09:03:13.676Z,13.00
2018-03-14T09:05:41.292Z,12.50
2018-03-14T09:08:08.939Z,13.00
2018-03-14T09:10:36.567Z,12.40
2018-03-14T09:13:04.232Z,12.83
2018-03-14T09:15:31.897Z,12.80
2018-03-14T09:17:59.549Z,11.90
2018-03-14T09:20:27.224Z,13.30
2018-03-14T09:22:54.836Z,13.13
2018-03-14T09:25:22.550Z,11.43
2018-03-14T09:27:50.161Z,11.60
2018-03-14T09:30:17.800Z,14.60
2018-03-14T09:32:45.436Z,14.20
2018-03-14T09:35:13.072Z,13.53
2018-03-14T09:37:40.680Z,13.83
2018-03-14T09:40:08.413Z,13.20
2018-03-14T09:42:36.030Z,12.70
2018-03-14T09:45:04.667Z,13.53
2018-03-14T09:47:32.324Z,12.60
2018-03-14T09:49:59.961Z,12.97
2018-03-14T09:52:27.648Z,13.40
2018-03-14T09:54:55.276Z,13.00
2018-03-14T09:57:22.981Z,16.27
2018-03-14T09:59:50.634Z,13.23
2018-03-14T10:02:18.298Z,14.97
2018-03-14T10:04:45.973Z,14.60
2018-03-14T10:07:13.607Z,14.03
2018-03-14T10:09:41.216Z,13.93
2018-03-14T10:12:08.852Z,15.53
2018-03-14T10:14:36.520Z,16.80
2018-03-14T10:17:04.161Z,14.87
2018-03-14T10:19:31.846Z,13.60
2018-03-14T10:21:59.496Z,12.60
2018-03-14T10:24:27.121Z,15.17
2018-03-14T10:26:54.834Z,13.60
2018-03-14T10:29:22.448Z,16.07
2018-03-14T10:31:50.155Z,15.87
2018-03-14T10:34:17.824Z,22.00
2018-03-14T10:36:45.485Z,14.40
2018-03-14T10:39:13.098Z,15.30
2018-03-14T10:41:40.805Z,14.37
2018-03-14T10:44:08.412Z,16.27
2018-03-14T10:46:36.068Z,14.80
2018-03-14T10:49:03.689Z,15.47
2018-03-14T10:51:31.300Z,16.00
2018-03-14T10:53:58.936Z,17.13
2018-03-14T10:56:26.548Z,13.23
2018-03-14T10:58:54.240Z,13.90
2018-03-14T11:01:21.853Z,15.10
2018-03-14T11:03:49.497Z,14.63
2018-03-14T11:06:17.136Z,13.70
2018-03-14T11:08:46.433Z,13.43
2018-03-14T11:11:14.040Z,13.70
2018-03-14T11:13:41.679Z,14.20
2018-03-14T11:16:09.410Z,14.20
2018-03-14T11:18:37.049Z,15.67
2018-03-14T11:21:04.745Z,14.80
2018-03-14T11:23:32.401Z,14.50
2018-03-14T11:26:00.013Z,14.80
2018-03-14T11:28:27.692Z,14.33
2018-03-14T11:30:55.306Z,14.70
2018-03-14T11:33:22.921Z,14.17
2018-03-14T11:35:50.547Z,15.40
2018-03-14T11:38:18.180Z,17.13
2018-03-14T11:40:45.816Z,13.50
2018-03-14T11:43:13.428Z,14.80
2018-03-14T11:45:41.164Z,15.27
2018-03-14T11:48:08.833Z,14.27
2018-03-14T11:50:36.496Z,15.40
2018-03-14T11:53:04.108Z,14.17
2018-03-14T11:55:31.749Z,14.33
2018-03-14T11:57:59.376Z,15.37
2018-03-14T12:00:27.013Z,14.60
2018-03-14T12:02:54.632Z,15.30
2018-03-14T12:05:22.264Z,16.20
2018-03-14T12:07:49.937Z,15.27
2018-03-14T12:10:17.590Z,16.60
2018-03-14T12:12:45.248Z,16.13
2018-03-14T12:15:12.917Z,15.97
2018-03-14T12:17:40.552Z,16.23
2018-03-14T12:20:08.241Z,16.97
2018-03-14T12:22:35.906Z,17.33
2018-03-14T12:25:03.521Z,15.90
2018-03-14T12:27:31.157Z,15.83
2018-03-14T12:29:58.812Z,15.87
2018-03-14T12:32:26.649Z,14.07
2018-03-14T12:34:54.260Z,16.27
2018-03-14T12:37:21.974Z,15.97
2018-03-14T12:39:49.588Z,17.03
2018-03-14T12:42:17.223Z,16.87
2018-03-14T12:44:44.858Z,14.67
2018-03-14T12:47:12.549Z,15.30
2018-03-14T12:49:40.144Z,15.47
2018-03-14T12:52:07.801Z,14.50
2018-03-14T12:54:35.521Z,14.73
2018-03-14T12:57:03.132Z,14.37
2018-03-14T12:59:30.764Z,14.40
2018-03-14T13:01:58.385Z,15.07
2018-03-14T13:04:26.021Z,16.43
2018-03-14T13:06:53.732Z,16.60
2018-03-14T13:09:21.360Z,17.60
2018-03-14T13:11:49.001Z,14.90
2018-03-14T13:14:16.716Z,15.80
2018-03-14T13:16:44.384Z,15.93
2018-03-14T13:19:12.014Z,17.03
2018-03-14T13:21:39.624Z,14.50
2018-03-14T13:24:07.358Z,17.07
2018-03-14T13:26:34.972Z,15.23
2018-03-14T13:29:02.706Z,15.50
2018-03-14T13:31:30.359Z,16.87
2018-03-14T13:33:57.991Z,17.60
2018-03-14T13:36:25.605Z,15.47
2018-03-14T13:38:53.262Z,16.50
2018-03-14T13:41:20.912Z,14.40
2018-03-14T13:43:48.573Z,15.13
2018-03-14T13:46:16.212Z,16.50
2018-03-14T13:48:43.825Z,14.43
2018-03-14T13:51:11.467Z,15.93
2018-03-14T13:53:39.081Z,16.33
2018-03-14T13:56:06.789Z,20.17
2018-03-14T13:58:34.448Z,17.57
2018-03-14T14:01:02.108Z,21.80
2018-03-14T14:03:29.752Z,18.07
2018-03-14T14:05:57.385Z,17.70
2018-03-14T14:08:24.996Z,16.67
2018-03-14T14:10:52.629Z,15.90
2018-03-14T14:13:20.248Z,17.00
2018-03-14T14:15:47.980Z,15.97
2018-03-14T14:18:15.644Z,17.37
2018-03-14T14:20:43.252Z,18.53
2018-03-14T14:23:10.893Z,17.40
2018-03-14T14:25:38.508Z,16.57
2018-03-14T14:28:06.194Z,16.30
2018-03-14T14:30:33.880Z,19.23
2018-03-14T14:33:01.508Z,15.77
2018-03-14T14:35:29.180Z,16.67
2018-03-14T14:37:56.818Z,15.70
2018-03-14T14:40:24.513Z,15.63
2018-03-14T14:42:52.152Z,15.67
2018-03-14T14:45:19.833Z,14.17
2018-03-14T14:47:47.472Z,12.80
2018-03-14T14:50:15.758Z,17.07
2018-03-14T14:52:43.511Z,19.37
2018-03-14T14:55:11.133Z,18.30
2018-03-14T14:57:38.865Z,18.03
2018-03-14T15:00:06.476Z,17.23
2018-03-14T15:02:34.194Z,16.33
2018-03-14T15:05:01.801Z,8.90
2018-03-14T15:07:29.407Z,9.00
2018-03-14T15:09:57.037Z,7.53
2018-03-14T15:12:24.644Z,8.43
2018-03-14T15:14:52.397Z,8.60
2018-03-14T15:17:20.065Z,7.73
2018-03-14T15:19:47.730Z,6.70
2018-03-14T15:22:15.400Z,7.63
2018-03-14T15:24:43.253Z,6.50
2018-03-14T15:27:10.980Z,7.40
2018-03-14T15:29:38.609Z,7.00
2018-03-14T15:32:06.242Z,6.60
2018-03-14T15:34:34.045Z,6.13
2018-03-14T15:37:01.668Z,6.40
2018-03-14T15:39:29.311Z,6.13
2018-03-14T15:41:56.916Z,6.90
2018-03-14T15:44:24.561Z,5.80
2018-03-14T15:46:52.221Z,6.63
2018-03-14T15:49:19.894Z,6.63
2018-03-14T15:51:47.549Z,7.27
2018-03-14T15:54:15.157Z,7.13
2018-03-14T15:56:42.866Z,6.47
2018-03-14T15:59:10.537Z,6.47
2018-03-14T16:01:38.165Z,6.10
2018-03-14T16:04:05.775Z,4.73
2018-03-14T16:06:33.411Z,5.40
2018-03-14T16:09:01.018Z,5.80
2018-03-14T16:11:28.645Z,6.37
2018-03-14T16:13:56.248Z,5.00
2018-03-14T16:16:23.964Z,5.20
2018-03-14T16:18:51.564Z,5.13
2018-03-14T16:21:19.193Z,5.57
2018-03-14T16:23:46.803Z,5.93
2018-03-14T16:26:14.423Z,4.77
2018-03-14T16:28:42.076Z,4.83
2018-03-14T16:31:09.733Z,5.43
2018-03-14T16:33:37.345Z,7.43
2018-03-14T16:36:05.061Z,5.13
2018-03-14T16:38:32.689Z,6.47
2018-03-14T16:41:00.289Z,6.97
2018-03-14T16:43:27.917Z,6.17
2018-03-14T16:45:55.525Z,4.60
2018-03-14T16:48:23.155Z,5.83
2018-03-14T16:50:50.781Z,5.33
2018-03-14T16:53:18.413Z,4.70
2018-03-14T16:55:46.056Z,5.00
2018-03-14T16:58:13.726Z,4.73
2018-03-14T17:00:41.334Z,5.70
2018-03-14T17:03:08.961Z,4.97
2018-03-14T17:05:36.571Z,5.37
2018-03-14T17:08:04.268Z,6.00
2018-03-14T17:10:31.872Z,4.77
2018-03-14T17:12:59.496Z,4.37
2018-03-14T17:15:27.284Z,4.40
2018-03-14T17:17:54.914Z,5.37
2018-03-14T17:20:22.561Z,5.33
2018-03-14T17:22:50.252Z,6.47
2018-03-14T17:25:17.903Z,5.40
2018-03-14T17:27:45.530Z,5.53
2018-03-14T17:30:13.242Z,5.90
2018-03-14T17:32:40.908Z,5.80
2018-03-14T17:35:08.518Z,5.90
2018-03-14T17:37:36.176Z,5.90
2018-03-14T17:40:03.912Z,4.93
2018-03-14T17:42:31.551Z,5.70
2018-03-14T17:44:59.176Z,5.10
2018-03-14T17:47:26.776Z,5.37
2018-03-14T17:49:54.420Z,5.27
2018-03-14T17:52:22.028Z,4.93
2018-03-14T17:54:49.757Z,5.43
2018-03-14T17:57:17.408Z,5.23
2018-03-14T17:59:45.042Z,6.10
2018-03-14T18:02:12.743Z,5.53
2018-03-14T18:04:40.369Z,7.20
2018-03-14T18:07:07.977Z,6.23
2018-03-14T18:09:35.645Z,6.90
2018-03-14T18:12:03.297Z,6.50
2018-03-14T18:14:30.940Z,7.50
2018-03-14T18:16:58.584Z,7.60
2018-03-14T18:19:26.282Z,7.43
2018-03-14T18:21:54.238Z,6.67
2018-03-14T18:24:21.854Z,7.90
2018-03-14T18:26:49.484Z,8.40
2018-03-14T18:29:17.101Z,6.97
2018-03-14T18:31:45.007Z,7.87
2018-03-14T18:34:12.768Z,8.10
2018-03-14T18:36:40.441Z,7.83
2018-03-14T18:39:08.045Z,8.57
2018-03-14T18:41:35.760Z,7.43
2018-03-14T18:44:03.369Z,8.60
2018-03-14T18:46:31.001Z,9.00
2018-03-14T18:48:58.608Z,8.27
2018-03-14T18:51:26.236Z,8.50
2018-03-14T18:53:53.851Z,8.83
2018-03-14T18:56:21.536Z,7.67
2018-03-14T18:58:49.146Z,7.50
2018-03-14T19:01:16.798Z,8.07
2018-03-14T19:03:44.401Z,9.37
2018-03-14T19:06:12.081Z,8.40
2018-03-14T19:08:39.749Z,8.90
2018-03-14T19:11:07.409Z,9.17
2018-03-14T19:13:35.072Z,9.60
2018-03-14T19:16:02.685Z,8.80
2018-03-14T19:18:30.324Z,9.27
2018-03-14T19:20:57.961Z,9.60
2018-03-14T19:23:25.630Z,8.47
2018-03-14T19:25:53.300Z,8.03
2018-03-14T19:28:21.145Z,8.83
2018-03-14T19:30:48.781Z,8.73
2018-03-14T19:33:16.440Z,9.07
2018-03-14T19:35:44.109Z,9.70
2018-03-14T19:38:11.717Z,7.93
2018-03-14T19:40:39.370Z,10.50
2018-03-14T19:43:07.028Z,8.97
2018-03-14T19:45:34.690Z,9.30
2018-03-14T19:48:02.348Z,10.10
2018-03-14T19:50:30.028Z,9.90
2018-03-14T19:52:57.645Z,10.10
2018-03-14T19:55:25.341Z,9.10
2018-03-14T19:57:52.958Z,9.47
2018-03-14T20:00:20.594Z,8.30
2018-03-14T20:02:48.196Z,9.37
2018-03-14T20:05:15.889Z,9.37
2018-03-14T20:07:43.510Z,10.33
2018-03-14T20:10:11.145Z,10.37
2018-03-14T20:12:38.777Z,9.40
2018-03-14T20:15:06.546Z,9.57
2018-03-14T20:17:34.204Z,10.00
2018-03-14T20:20:01.814Z,9.90
2018-03-14T20:22:29.448Z,9.73
2018-03-14T20:24:57.060Z,10.17
2018-03-14T20:27:24.757Z,11.03
2018-03-14T20:29:52.368Z,10.03
2018-03-14T20:32:20.012Z,10.47
2018-03-14T20:34:47.620Z,10.77
2018-03-14T20:37:15.301Z,10.30
2018-03-14T20:39:42.922Z,10.90
2018-03-14T20:42:10.624Z,9.90
2018-03-14T20:44:38.236Z,10.30
2018-03-14T20:47:05.958Z,9.80
2018-03-14T20:49:33.621Z,11.40
2018-03-14T20:52:01.269Z,11.33
2018-03-14T20:54:28.944Z,12.70
2018-03-14T20:56:56.581Z,11.47
2018-03-14T20:59:24.203Z,10.03
2018-03-14T21:01:51.864Z,10.50
2018-03-14T21:04:19.501Z,10.63
2018-03-14T21:06:47.117Z,11.40
2018-03-14T21:09:14.744Z,11.00
2018-03-14T21:11:42.380Z,11.40
2018-03-14T21:14:10.045Z,10.40
2018-03-14T21:16:37.661Z,10.90
2018-03-14T21:19:05.297Z,10.50
2018-03-14T21:21:32.916Z,11.97
2018-03-14T21:24:00.554Z,10.53
2018-03-14T21:26:28.651Z,10.90
2018-03-14T21:28:56.325Z,10.20
2018-03-14T21:31:24.039Z,11.07
2018-03-14T21:33:51.652Z,11.90
2018-03-14T21:36:19.277Z,12.33
2018-03-14T21:38:47.265Z,12.07
2018-03-14T21:41:14.935Z,10.93
2018-03-14T21:43:42.557Z,11.20
2018-03-14T21:46:10.269Z,11.73
2018-03-14T21:48:37.900Z,11.70
2018-03-14T21:51:05.541Z,10.73
2018-03-14T21:53:33.251Z,11.60
2018-03-14T21:56:00.888Z,10.13
2018-03-14T21:58:28.501Z,10.60
2018-03-14T22:00:56.140Z,10.07
2018-03-14T22:03:23.756Z,11.43
2018-03-14T22:05:51.389Z,10.60
2018-03-14T22:08:19.033Z,9.87
2018-03-14T22:10:46.684Z,9.00
2018-03-14T22:13:14.315Z,9.10
2018-03-14T22:15:41.943Z,9.93
2018-03-14T22:18:09.556Z,9.67
2018-03-14T22:20:37.441Z,11.33
2018-03-14T22:23:05.052Z,10.57
2018-03-14T22:25:32.692Z,10.40
2018-03-14T22:28:00.332Z,11.60
2018-03-14T22:30:27.974Z,11.03
2018-03-14T22:32:55.597Z,10.60
2018-03-14T22:35:23.836Z,11.20
2018-03-14T22:37:51.488Z,10.80
2018-03-14T22:40:19.124Z,11.70
2018-03-14T22:42:46.744Z,12.70
2018-03-14T22:45:14.377Z,11.30
2018-03-14T22:47:42.047Z,10.60
2018-03-14T22:50:09.685Z,11.63
2018-03-14T22:52:37.348Z,11.73
2018-03-14T22:55:04.965Z,11.33
2018-03-14T22:57:32.688Z,11.00
2018-03-14T23:00:00.357Z,11.50
2018-03-14T23:02:28.008Z,9.93
2018-03-14T23:04:55.628Z,12.33
2018-03-14T23:07:23.290Z,12.90
2018-03-14T23:09:50.900Z,9.93
2018-03-14T23:12:18.568Z,12.63
2018-03-14T23:14:46.228Z,10.67
2018-03-14T23:17:13.836Z,11.80
2018-03-14T23:19:41.482Z,12.50
2018-03-14T23:22:09.097Z,12.03
2018-03-14T23:24:36.741Z,12.57
2018-03-14T23:27:04.436Z,11.90
2018-03-14T23:29:32.073Z,12.17
2018-03-14T23:31:59.767Z,12.37
2018-03-14T23:34:27.532Z,12.60
2018-03-14T23:36:55.196Z,12.90
2018-03-14T23:39:22.806Z,12.27
2018-03-14T23:41:50.440Z,11.80
2018-03-14T23:44:18.044Z,12.57
2018-03-14T23:46:45.745Z,12.20
2018-03-14T23:49:13.412Z,12.97
2018-03-14T23:51:41.049Z,12.57
2018-03-14T23:54:08.749Z,12.47
2018-03-14T23:56:36.460Z,12.53
2018-03-14T23:59:04.119Z,12.00
